Latest Coastal Weather Observations for Mallacoota

IDV60701

Issued at 4:32 pm EDT Sunday 26 February 2017 (issued every 10 minutes, with the page automatically refreshed every 10 minutes)

About coastal observations | Map of coastal stations | Coastal observations for VIC | Marine services | Other Formats
Station Details ID: 084084 Name: MALLACOOTA Lat: -37.60 Lon: 149.73 Height: 22.0 m
Data from the previous 72 hours. | See also: Recent months at Mallacoota
Date/Time
EDT
Temp
°C
Wind Pressure Rain since
9am
mm
Weather Cloud Vis
km
Sea
Height
m
Swell
Dir  Spd
kts
Gust
kts
hPa Trend Height
m
Period
s
Dir
26/04:30pm 20.2 ENE 12 17 1024.4 - 0.0 - - - - - - -
26/04:00pm 20.7 E 11 16 1024.5 - 0.0 - - - - - - -
26/03:30pm 20.7 E 11 16 1024.4 - 0.0 - - - - - - -
26/03:00pm 21.5 E 10 14 1024.7 - 0.0 - - - - - - -
26/02:30pm 21.1 E 10 15 1024.9 - 0.0 - - - - - - -
26/02:00pm 21.1 E 10 15 1025.3 - 0.0 - - - - - - -
26/01:30pm 21.0 E 10 13 1025.4 - 0.0 - - - - - - -
26/01:00pm 20.8 E 11 14 1025.5 - 0.0 - - - - - - -
26/12:30pm 20.8 E 10 14 1025.6 - 0.0 - - - - - - -
26/12:00pm 19.8 E 10 14 1025.8 - 0.0 - - - - - - -
26/11:30am 20.4 E 10 15 1025.8 - 0.0 - - - - - - -
26/11:00am 20.1 ENE 10 13 1025.8 - 0.0 - - - - - - -
26/10:30am 19.1 E 10 13 1026.1 - 0.0 - - - - - - -
26/10:00am 19.4 ENE 10 13 1026.1 - 0.0 - - - - - - -
26/09:30am 19.9 NE 6 11 1025.8 - 0.0 - - - - - - -
26/09:00am 19.3 NE 6 9 1025.5 - 0.6 - - - - - - -
26/08:30am 19.0 E 9 13 1025.3 - 0.6 - - - - - - -
26/08:00am 18.2 E 9 13 1025.4 - 0.6 - - - - - - -
26/07:30am 15.0 NW 3 10 1025.2 - 0.6 - - - - - - -
26/07:00am 15.1 ENE 7 11 1024.7 - 0.6 - - - - - - -
26/06:30am 15.4 ENE 7 13 1024.4 - 0.6 - - - - - - -
26/06:00am 13.9 NNW 3 5 1024.0 - 0.6 - - - - - - -
26/05:30am 15.5 NE 6 10 1023.7 - 0.6 - - - - - - -
26/05:00am 17.5 E 9 11 1023.4 - 0.6 - - - - - - -
26/04:30am 17.5 E 9 13 1023.4 - 0.6 - - - - - - -
26/04:00am 17.6 E 9 12 1023.6 - 0.6 - - - - - - -
26/03:30am 17.8 E 9 13 1023.8 - 0.6 - - - - - - -
26/03:00am 18.0 E 9 12 1023.9 - 0.6 - - - - - - -
26/02:30am 18.1 E 9 13 1024.0 - 0.6 - - - - - - -
26/02:00am 18.2 ENE 9 13 1024.2 - 0.6 - - - - - - -
26/01:30am 18.2 E 9 12 1024.2 - 0.6 - - - - - - -
26/01:00am 18.1 E 10 13 1024.5 - 0.6 - - - - - - -
26/12:30am 18.2 E 9 12 1024.9 - 0.6 - - - - - - -
26/12:00am 18.2 E 9 13 1025.0 - 0.6 - - - - - - -
 
Date/Time
EDT
Temp
°C
Wind Pressure Rain since
9am
mm
Weather Cloud Vis
km
Sea
Height
m
Swell
Dir  Spd
kts
Gust
kts
hPa Trend Height
m
Period
s
Dir
25/11:30pm 18.0 E 9 13 1025.0 - 0.6 - - - - - - -
25/11:00pm 18.0 E 9 15 1025.0 - 0.6 - - - - - - -
25/10:30pm 18.1 E 9 13 1025.0 - 0.6 - - - - - - -
25/10:00pm 18.2 ESE 10 15 1025.1 - 0.6 - - - - - - -
25/09:30pm 18.2 E 11 16 1025.0 - 0.6 - - - - - - -
25/09:00pm 18.3 ESE 10 15 1024.6 - 0.6 - - - - - - -
25/08:30pm 18.2 ESE 11 17 1024.5 - 0.6 - - - - - - -
25/08:00pm 18.3 E 11 17 1024.2 - 0.6 - - - - - - -
25/07:30pm 18.4 ESE 11 18 1023.9 - 0.6 - - - - - - -
25/07:00pm 18.3 E 13 18 1023.6 - 0.6 - - - - - - -
25/06:30pm 18.6 E 13 17 1023.2 - 0.6 - - - - - - -
25/06:00pm 18.5 E 12 17 1023.0 - 0.6 Recent precip. - - - - - -
25/05:30pm 18.2 E 10 14 1023.0 - 0.6 - - - - - - -
25/05:00pm 17.6 E 9 13 1023.1 - 0.4 - - - - - - -
25/04:30pm 17.2 E 7 12 1023.2 - 0.4 - - - - - - -
25/04:00pm 17.4 ESE 5 7 1023.3 - 0.4 - - - - - - -
25/03:30pm 17.0 ESE 4 6 1023.5 - 0.4 - - - - - - -
25/03:00pm 17.8 SE 5 7 1023.5 - 0.0 - - - - - - -
25/02:30pm 17.6 SSE 4 7 1023.6 - 0.0 - - - - - - -
25/02:00pm 17.5 WSW 3 5 1023.9 - 0.0 - - - - - - -
25/01:30pm 16.9 S 6 9 1024.1 - 0.0 - - - - - - -
25/01:00pm 17.0 SSE 5 8 1024.2 - 0.0 - - - - - - -
25/12:30pm 17.3 S 4 5 1024.4 - 0.0 - - - - - - -
25/12:00pm 17.7 SSW 8 11 1024.3 - 0.0 - - - - - - -
25/11:30am 18.4 SSW 5 7 1024.2 - 0.0 - - - - - - -
25/11:00am 18.4 S 7 11 1024.2 - 0.0 - - - - - - -
25/10:30am 17.6 W 5 9 1024.2 - 0.0 - - - - - - -
25/10:00am 16.3 WNW 5 8 1024.2 - 0.0 - - - - - - -
25/09:30am 16.5 WSW 5 9 1024.0 - 0.0 - - - - - - -
25/09:00am 16.3 W 6 9 1023.6 - 0.0 - - - - - - -
25/08:30am 15.8 W 6 8 1023.4 - 0.0 - - - - - - -
25/08:00am 15.3 W 5 7 1023.3 - 0.0 - - - - - - -
25/07:30am 14.7 WNW 5 7 1023.0 - 0.0 - - - - - - -
25/07:00am 14.2 W 5 9 1023.0 - 0.0 - - - - - - -
25/06:30am 14.2 W 5 7 1022.8 - 0.0 - - - - - - -
25/06:00am 14.7 WNW 6 9 1022.7 - 0.0 - - - - - - -
25/05:30am 14.6 W 4 6 1022.5 - 0.0 - - - - - - -
25/05:00am 14.6 W 6 9 1022.3 - 0.0 - - - - - - -
25/04:30am 14.6 W 6 9 1022.2 - 0.0 - - - - - - -
25/04:00am 14.9 WNW 7 11 1022.1 - 0.0 - - - - - - -
25/03:30am 15.4 W 7 10 1022.3 - 0.0 - - - - - - -
25/03:00am 15.8 W 5 7 1022.5 - 0.0 - - - - - - -
25/02:30am 15.9 W 5 8 1022.8 - 0.0 - - - - - - -
25/02:00am 15.9 W 5 8 1022.8 - 0.0 - - - - - - -
25/01:30am 15.9 WNW 5 7 1023.0 - 0.0 - - - - - - -
25/01:00am 16.0 W 5 7 1023.2 - 0.0 - - - - - - -
25/12:30am 16.1 WNW 5 7 1023.4 - 0.0 - - - - - - -
25/12:00am 16.2 WNW 5 8 1023.5 - 0.0 - - - - - - -
 
Date/Time
EDT
Temp
°C
Wind Pressure Rain since
9am
mm
Weather Cloud Vis
km
Sea
Height
m
Swell
Dir  Spd
kts
Gust
kts
hPa Trend Height
m
Period
s
Dir
24/11:30pm 16.2 NW 4 6 1023.7 - 0.0 - - - - - - -
24/11:00pm 16.6 W 4 6 1023.9 - 0.0 - - - - - - -
24/10:30pm 16.6 WSW 4 6 1024.1 - 0.0 - - - - - - -
24/10:00pm 16.7 WSW 6 9 1024.0 - 0.0 - - - - - - -
24/09:30pm 16.9 WSW 5 9 1024.0 - 0.0 - - - - - - -
24/09:00pm 17.0 SW 5 9 1023.8 - 0.0 - - - - - - -
24/08:30pm 17.1 WSW 5 7 1023.6 - 0.0 - - - - - - -
24/08:00pm 17.1 WSW 5 8 1023.3 - 0.0 - - - - - - -
24/07:30pm 17.3 SW 7 13 1023.1 - 0.0 - - - - - - -
24/07:00pm 17.5 SW 7 12 1023.0 - 0.0 - - - - - - -
24/06:30pm 17.8 SW 8 13 1022.7 - 0.0 - - - - - - -
24/06:00pm 17.8 SW 10 15 1022.4 - 0.0 - - - - - - -
24/05:30pm 17.7 SSW 11 21 1022.2 - 0.0 - - - - - - -
24/05:00pm 18.0 SSW 11 19 1022.0 - 0.0 - - - - - - -
24/04:30pm 18.3 SSW 12 21 1021.8 - 0.0 - - - - - - -
24/04:00pm 18.8 SSW 11 21 1021.6 - 0.0 - - - - - - -
24/03:30pm 18.8 SSW 12 17 1021.6 - 0.0 - - - - - - -
24/03:00pm 19.3 SSW 10 20 1021.7 - 0.0 - - - - - - -
24/02:30pm 18.5 SSW 11 18 1022.0 - 0.0 - - - - - - -
24/02:00pm 18.6 SW 8 14 1022.0 - 0.0 - - - - - - -
24/01:30pm 18.7 SSW 11 18 1022.0 - 0.0 - - - - - - -
24/01:00pm 20.1 SSW 8 13 1021.9 - 0.0 - - - - - - -
24/12:30pm 19.1 SSW 10 17 1022.1 - 0.0 - - - - - - -
24/12:00pm 18.8 SW 9 12 1022.3 - 0.0 - - - - - - -
24/11:30am 19.7 SSW 8 14 1022.3 - 0.0 - - - - - - -
24/11:00am 19.5 SW 7 11 1022.4 - 0.0 - - - - - - -
24/10:30am 18.3 SW 7 12 1022.6 - 0.0 - - - - - - -
24/10:00am 18.6 SW 4 6 1022.6 - 0.0 - - - - - - -
24/09:30am 18.5 SW 4 7 1022.5 - 0.0 - - - - - - -
24/09:00am 18.5 W 4 8 1022.4 - 0.0 - - - - - - -
24/08:30am 17.9 WNW 5 8 1022.3 - 0.0 - - - - - - -
24/08:00am 17.6 W 5 6 1021.9 - 0.0 - - - - - - -
24/07:30am 17.3 WNW 5 6 1021.8 - 0.0 - - - - - - -
24/07:00am 17.0 WNW 5 6 1021.7 - 0.0 - - - - - - -
24/06:30am 16.9 WNW 5 7 1021.5 - 0.0 - - - - - - -
24/06:00am 16.8 WNW 5 7 1021.3 - 0.0 - - - - - - -
24/05:30am 16.7 WNW 5 6 1021.1 - 0.0 - - - - - - -
24/05:00am 16.4 WNW 5 6 1021.1 - 0.0 - - - - - - -
24/04:30am 16.2 WNW 5 7 1021.0 - 0.0 - - - - - - -
24/04:00am 15.9 WNW 5 6 1021.1 - 0.0 - - - - - - -
24/03:30am 15.5 WNW 5 6 1021.0 - 0.0 - - - - - - -
24/03:00am 15.3 WNW 5 7 1021.0 - 0.0 - - - - - - -
24/02:30am 15.4 WNW 5 7 1021.1 - 0.0 - - - - - - -
24/02:00am 15.5 WNW 5 6 1021.1 - 0.0 - - - - - - -
24/01:30am 15.6 WNW 5 6 1021.2 - 0.0 - - - - - - -
24/01:00am 15.9 WNW 5 6 1021.2 - 0.0 - - - - - - -
24/12:30am 16.1 WNW 5 6 1021.2 - 0.0 - - - - - - -
24/12:00am 16.4 WNW 5 6 1021.3 - 0.0 - - - - - - -
 
Date/Time
EDT
Temp
°C
Wind Pressure Rain since
9am
mm
Weather Cloud Vis
km
Sea
Height
m
Swell
Dir  Spd
kts
Gust
kts
hPa Trend Height
m
Period
s
Dir
23/11:30pm 16.5 W 4 5 1021.2 - 0.0 - - - - - - -
23/11:00pm 16.8 W 4 5 1021.1 - 0.0 - - - - - - -
23/10:30pm 16.9 W 3 5 1021.1 - 0.0 - - - - - - -
23/10:00pm 17.2 W 4 5 1021.1 - 0.0 - - - - - - -
23/09:30pm 17.6 WSW 3 5 1020.8 - 0.0 - - - - - - -
23/09:00pm 17.9 WSW 3 5 1020.4 - 0.0 - - - - - - -
23/08:30pm 18.5 WSW 4 5 1019.9 - 0.0 - - - - - - -
23/08:00pm 19.1 SW 4 6 1019.6 - 0.0 - - - - - - -
23/07:30pm 19.9 SSW 6 8 1019.1 - 0.0 - - - - - - -
23/07:00pm 20.3 SSW 7 11 1018.6 - 0.0 - - - - - - -
23/06:30pm 20.9 S 7 10 1018.3 - 0.0 - - - - - - -
23/06:00pm 21.6 S 7 11 1018.2 - 0.0 - - - - - - -
23/05:30pm 21.9 SSW 8 13 1017.9 - 0.0 - - - - - - -
23/05:00pm 22.4 S 9 13 1017.6 - 0.0 - - - - - - -

Other Formats:

Comma delimited format used in spreadsheet applications
http://www.bom.gov.au/fwo/IDV60701/IDV60701.94935.axf

JavaScript Object Notation format (JSON) in row-major order
http://www.bom.gov.au/fwo/IDV60701/IDV60701.94935.json